createdAt,value
2017-05-01T00:00:05.612Z,22.2
2017-05-01T00:02:08.002Z,22.2
2017-05-01T00:04:04.677Z,22.2
2017-05-01T00:06:05.395Z,22.2
2017-05-01T00:08:05.024Z,22.2
2017-05-01T00:10:07.295Z,22.2
2017-05-01T00:12:05.124Z,22.2
2017-05-01T00:14:10.019Z,22.2
2017-05-01T00:16:04.699Z,22.2
2017-05-01T00:18:05.626Z,22.2
2017-05-01T00:20:08.219Z,22.2
2017-05-01T00:22:04.936Z,22.2
2017-05-01T00:24:04.883Z,22.2
2017-05-01T00:26:08.523Z,22.2
2017-05-01T00:28:05.278Z,22.2
2017-05-01T00:30:07.533Z,22.2
2017-05-01T00:32:10.480Z,22.2
2017-05-01T00:34:05.164Z,22.2
2017-05-01T00:36:04.878Z,22.2
2017-05-01T00:38:05.946Z,22.2
2017-05-01T00:40:05.470Z,22.2
2017-05-01T00:42:07.738Z,22.2
2017-05-01T00:44:08.084Z,22.2
2017-05-01T00:46:04.749Z,22.2
2017-05-01T00:48:13.077Z,22.2
2017-05-01T00:50:07.448Z,22.2
2017-05-01T00:52:04.749Z,22.2
2017-05-01T00:54:07.983Z,22.2
2017-05-01T00:56:05.045Z,22.2
2017-05-01T00:58:09.776Z,22.2
2017-05-01T01:00:05.454Z,22.2
2017-05-01T01:02:04.947Z,22.1
2017-05-01T01:04:04.621Z,22.2
2017-05-01T01:06:05.300Z,22.2
2017-05-01T01:08:05.400Z,22.2
2017-05-01T01:10:07.626Z,22.2
2017-05-01T01:12:05.585Z,22.2
2017-05-01T01:14:07.943Z,22.2
2017-05-01T01:16:09.744Z,22.2
2017-05-01T01:18:05.213Z,22.2
2017-05-01T01:20:05.827Z,22.2
2017-05-01T01:22:05.156Z,22.2
2017-05-01T01:24:04.917Z,22.2
2017-05-01T01:26:05.321Z,22.2
2017-05-01T01:28:05.233Z,22.2
2017-05-01T01:30:04.974Z,22.2
2017-05-01T01:32:04.900Z,22.1
2017-05-01T01:34:07.686Z,22.2
2017-05-01T01:36:05.379Z,22.2
2017-05-01T01:38:08.025Z,22.2
2017-05-01T01:40:05.251Z,22.1
2017-05-01T01:42:04.956Z,22.1
2017-05-01T01:44:05.043Z,22.2
2017-05-01T01:46:07.282Z,22.2
2017-05-01T01:48:04.959Z,22.2
2017-05-01T01:50:04.936Z,22.1
2017-05-01T01:52:04.631Z,22.2
2017-05-01T01:54:07.850Z,22.2
2017-05-01T01:56:08.272Z,22.2
2017-05-01T01:58:05.476Z,22.1
2017-05-01T02:00:05.092Z,22.1
2017-05-01T02:02:07.615Z,22.1
2017-05-01T02:04:04.838Z,22.1
2017-05-01T02:06:05.159Z,22.1
2017-05-01T02:08:05.207Z,22.1
2017-05-01T02:10:04.937Z,22.1
2017-05-01T02:12:04.605Z,22.1
2017-05-01T02:14:05.626Z,22.1
2017-05-01T02:16:07.738Z,22.2
2017-05-01T02:18:05.204Z,22.2
2017-05-01T02:20:08.171Z,22.1
2017-05-01T02:22:07.471Z,22.1
2017-05-01T02:24:05.236Z,22.1
2017-05-01T02:26:05.148Z,22.2
2017-05-01T02:28:07.470Z,22.1
2017-05-01T02:30:10.263Z,22.1
2017-05-01T02:32:05.296Z,22.1
2017-05-01T02:34:04.982Z,22.1
2017-05-01T02:36:07.803Z,22.1
2017-05-01T02:38:05.645Z,22.1
2017-05-01T02:40:05.307Z,22.1
2017-05-01T02:42:15.137Z,22.1
2017-05-01T02:44:07.655Z,22.1
2017-05-01T02:46:05.370Z,22.1
2017-05-01T02:48:05.358Z,22.1
2017-05-01T02:50:05.369Z,22.1
2017-05-01T02:52:05.584Z,22.1
2017-05-01T02:54:05.326Z,22.1
2017-05-01T02:56:05.374Z,22.1
2017-05-01T02:58:12.670Z,22.1
2017-05-01T03:00:05.401Z,22.1
2017-05-01T03:02:07.752Z,22.1
2017-05-01T03:04:05.691Z,22.1
2017-05-01T03:06:07.911Z,22.1
2017-05-01T03:08:08.257Z,22.1
2017-05-01T03:10:04.937Z,22.1
2017-05-01T03:12:04.671Z,22.1
2017-05-01T03:14:05.687Z,22.1
2017-05-01T03:16:04.982Z,22.1
2017-05-01T03:18:12.435Z,22.1
2017-05-01T03:20:05.555Z,22.1
2017-05-01T03:22:05.271Z,22.1
2017-05-01T03:24:04.946Z,22.1
2017-05-01T03:26:04.998Z,22.1
2017-05-01T03:28:04.754Z,22.1
2017-05-01T03:30:05.479Z,22.1
2017-05-01T03:32:05.345Z,22.1
2017-05-01T03:34:05.088Z,22.1
2017-05-01T03:36:13.035Z,22.1
2017-05-01T03:38:07.593Z,22.1
2017-05-01T03:40:07.963Z,22.1
2017-05-01T03:42:05.190Z,22.1
2017-05-01T03:44:05.238Z,22.1
2017-05-01T03:46:04.976Z,22.1
2017-05-01T03:48:09.800Z,22.1
2017-05-01T03:50:08.238Z,22.1
2017-05-01T03:52:10.162Z,22.1
2017-05-01T03:54:04.833Z,22.1
2017-05-01T03:56:05.714Z,22.1
2017-05-01T03:58:05.442Z,22.1
2017-05-01T04:00:05.183Z,22.1
2017-05-01T04:02:07.746Z,22.1
2017-05-01T04:04:05.485Z,22.1
2017-05-01T04:06:05.223Z,22.1
2017-05-01T04:08:08.337Z,22.1
2017-05-01T04:10:05.076Z,22.1
2017-05-01T04:12:04.760Z,22.1
2017-05-01T04:14:05.778Z,22.1
2017-05-01T04:16:05.557Z,22.1
2017-05-01T04:18:10.528Z,22.1
2017-05-01T04:20:05.631Z,22.1
2017-05-01T04:22:05.291Z,22.1
2017-05-01T04:24:05.790Z,22.1
2017-05-01T04:26:05.705Z,22.1
2017-05-01T04:28:07.926Z,22.1
2017-05-01T04:30:08.185Z,22.1
2017-05-01T04:32:05.199Z,22.1
2017-05-01T04:34:05.436Z,22.1
2017-05-01T04:36:05.110Z,22.1
2017-05-01T04:38:05.016Z,22.1
2017-05-01T04:40:05.047Z,22.1
2017-05-01T04:42:04.788Z,22.1
2017-05-01T04:44:05.685Z,22.1
2017-05-01T04:46:08.180Z,22.1
2017-05-01T04:48:04.911Z,22.1
2017-05-01T04:50:04.790Z,22.1
2017-05-01T04:52:05.629Z,22.1
2017-05-01T04:54:05.403Z,22.1
2017-05-01T04:56:05.559Z,22.1
2017-05-01T04:58:05.250Z,22.1
2017-05-01T05:00:04.917Z,22.1
2017-05-01T05:02:04.958Z,22.1
2017-05-01T05:04:05.195Z,22.1
2017-05-01T05:06:04.886Z,22.1
2017-05-01T05:08:05.826Z,22.1
2017-05-01T05:10:10.541Z,22.1
2017-05-01T05:12:05.108Z,22.1
2017-05-01T05:14:05.262Z,22.1
2017-05-01T05:16:05.578Z,22.1
2017-05-01T05:18:08.073Z,22.1
2017-05-01T05:20:05.573Z,22.1
2017-05-01T05:22:04.778Z,22.1
2017-05-01T05:24:05.491Z,22.1
2017-05-01T05:26:05.471Z,22
2017-05-01T05:28:07.981Z,22.1
2017-05-01T05:30:04.825Z,22.1
2017-05-01T05:32:08.230Z,22
2017-05-01T05:34:04.919Z,22.1
2017-05-01T05:36:04.634Z,22.1
2017-05-01T05:38:04.986Z,22.1
2017-05-01T05:40:04.701Z,22.1
2017-05-01T05:42:05.434Z,22.1
2017-05-01T05:44:07.536Z,22.1
2017-05-01T05:46:04.773Z,22.1
2017-05-01T05:48:05.047Z,22.1
2017-05-01T05:50:08.198Z,22.1
2017-05-01T05:52:04.955Z,22.1
2017-05-01T05:54:04.693Z,22.1
2017-05-01T05:56:05.290Z,22.1
2017-05-01T05:58:04.986Z,22.1
2017-05-01T06:00:05.110Z,22.1
2017-05-01T06:02:05.079Z,22.1
2017-05-01T06:04:05.606Z,22.1
2017-05-01T06:06:07.841Z,22.1
2017-05-01T06:08:08.346Z,22.2
2017-05-01T06:10:05.589Z,22.1
2017-05-01T06:12:04.809Z,22.2
2017-05-01T06:14:07.458Z,22.2
2017-05-01T06:16:05.422Z,22.2
2017-05-01T06:18:05.357Z,22.2
2017-05-01T06:20:05.188Z,22.2
2017-05-01T06:22:04.939Z,22.1
2017-05-01T06:24:04.661Z,22.2
2017-05-01T06:26:05.490Z,22.2
2017-05-01T06:28:05.179Z,22.2
2017-05-01T06:30:05.390Z,22.2
2017-05-01T06:32:07.589Z,22.2
2017-05-01T06:34:05.273Z,22.2
2017-05-01T06:36:05.071Z,22.2
2017-05-01T06:38:05.100Z,22.2
2017-05-01T06:40:04.968Z,22.2
2017-05-01T06:42:05.256Z,22.2
2017-05-01T06:44:12.841Z,22.2
2017-05-01T06:46:07.253Z,22.2
2017-05-01T06:48:05.363Z,22.2
2017-05-01T06:50:05.373Z,22.2
2017-05-01T06:52:05.088Z,22.2
2017-05-01T06:54:04.885Z,22.2
2017-05-01T06:56:05.929Z,22.2
2017-05-01T06:58:04.668Z,22.1
2017-05-01T07:00:05.376Z,22.1
2017-05-01T07:02:08.523Z,22.1
2017-05-01T07:04:05.661Z,22.1
2017-05-01T07:06:05.388Z,22.1
2017-05-01T07:08:05.394Z,22.1
2017-05-01T07:10:05.070Z,22
2017-05-01T07:12:05.361Z,22
2017-05-01T07:14:08.124Z,22
2017-05-01T07:16:04.769Z,22
2017-05-01T07:18:05.214Z,22
2017-05-01T07:20:05.297Z,22
2017-05-01T07:22:05.023Z,22
2017-05-01T07:24:04.714Z,21.9
2017-05-01T07:26:05.583Z,21.9
2017-05-01T07:28:04.818Z,21.9
2017-05-01T07:30:05.496Z,21.9
2017-05-01T07:32:05.707Z,21.9
2017-05-01T07:34:07.945Z,21.9
2017-05-01T07:36:04.817Z,22
2017-05-01T07:38:05.768Z,22
2017-05-01T07:40:10.181Z,22
2017-05-01T07:42:04.892Z,22
2017-05-01T07:44:05.941Z,22
2017-05-01T07:46:04.634Z,22.1
2017-05-01T07:48:05.337Z,22.1
2017-05-01T07:50:05.328Z,22.1
2017-05-01T07:52:06.382Z,22.1
2017-05-01T07:54:05.620Z,22.2
2017-05-01T07:56:18.343Z,22.2
2017-05-01T07:58:04.622Z,22.2
2017-05-01T08:00:07.840Z,22.2
2017-05-01T08:02:05.160Z,22.2
2017-05-01T08:04:07.406Z,22.2
2017-05-01T08:06:04.659Z,22.2
2017-05-01T08:08:05.591Z,22.3
2017-05-01T08:10:07.902Z,22.3
2017-05-01T08:12:05.632Z,22.3
2017-05-01T08:14:05.565Z,22.3
2017-05-01T08:16:05.337Z,22.3
2017-05-01T08:18:05.583Z,22.3
2017-05-01T08:20:05.537Z,22.3
2017-05-01T08:22:05.274Z,22.3
2017-05-01T08:24:05.366Z,22.3
2017-05-01T08:26:05.430Z,22.3
2017-05-01T08:28:10.217Z,22.3
2017-05-01T08:30:10.001Z,22.3
2017-05-01T08:32:07.578Z,22.4
2017-05-01T08:34:07.858Z,22.4
2017-05-01T08:36:05.131Z,22.3
2017-05-01T08:38:10.217Z,22.4
2017-05-01T08:40:05.916Z,22.4
2017-05-01T08:42:04.622Z,22.4
2017-05-01T08:44:05.725Z,22.4
2017-05-01T08:46:04.945Z,22.4
2017-05-01T08:48:04.622Z,22.4
2017-05-01T08:50:05.770Z,22.4
2017-05-01T08:52:04.985Z,22.4
2017-05-01T08:54:04.799Z,22.4
2017-05-01T08:56:05.787Z,22.4
2017-05-01T08:58:05.010Z,22.4
2017-05-01T09:00:04.677Z,22.5
2017-05-01T09:02:05.316Z,22.5
2017-05-01T09:04:10.080Z,22.3
2017-05-01T09:06:09.937Z,22.3
2017-05-01T09:08:08.074Z,22.3
2017-05-01T09:10:04.922Z,22.3
2017-05-01T09:12:04.775Z,22.4
2017-05-01T09:14:05.735Z,22.3
2017-05-01T09:16:05.433Z,22.3
2017-05-01T09:18:05.343Z,22.3
2017-05-01T09:20:05.185Z,22.3
2017-05-01T09:22:04.947Z,22.3
2017-05-01T09:24:04.734Z,22.3
2017-05-01T09:26:08.305Z,22.3
2017-05-01T09:28:05.409Z,22.3
2017-05-01T09:30:07.610Z,22.3
2017-05-01T09:32:05.479Z,22.3
2017-05-01T09:34:04.883Z,22.3
2017-05-01T09:36:05.198Z,22.3
2017-05-01T09:38:05.153Z,22.3
2017-05-01T09:40:07.399Z,22.3
2017-05-01T09:42:04.663Z,22.3
2017-05-01T09:44:05.824Z,22.3
2017-05-01T09:46:12.675Z,22.3
2017-05-01T09:48:07.631Z,22.3
2017-05-01T09:50:05.649Z,22.3
2017-05-01T09:52:05.357Z,22.3
2017-05-01T09:54:08.153Z,22.3
2017-05-01T09:56:05.214Z,22.3
2017-05-01T09:58:04.950Z,22.3
2017-05-01T10:00:07.593Z,22.2
2017-05-01T10:02:05.612Z,22.2
2017-05-01T10:04:10.383Z,22.3
2017-05-01T10:06:05.084Z,22.3
2017-05-01T10:08:05.699Z,22.3
2017-05-01T10:10:05.562Z,22.3
2017-05-01T10:12:12.361Z,22.4
2017-05-01T10:14:05.495Z,22.3
2017-05-01T10:16:07.715Z,22.4
2017-05-01T10:18:07.161Z,22.3
2017-05-01T10:20:05.199Z,22.3
2017-05-01T10:22:05.114Z,22.4
2017-05-01T10:24:07.764Z,22.3
2017-05-01T10:26:05.627Z,22.3
2017-05-01T10:28:05.094Z,22.3
2017-05-01T10:30:07.356Z,22.3
2017-05-01T10:32:05.385Z,22.3
2017-05-01T10:34:04.684Z,22.4
2017-05-01T10:36:04.936Z,22.4
2017-05-01T10:38:07.583Z,22.4
2017-05-01T10:40:05.335Z,22.4
2017-05-01T10:42:05.046Z,22.4
2017-05-01T10:44:04.822Z,22.4
2017-05-01T10:46:05.524Z,22.4
2017-05-01T10:48:05.517Z,22.4
2017-05-01T10:50:05.404Z,22.4
2017-05-01T10:52:07.615Z,22.3
2017-05-01T10:54:10.388Z,22.3
2017-05-01T10:56:05.510Z,22.3
2017-05-01T10:58:05.237Z,22.3
2017-05-01T11:00:05.158Z,22.3
2017-05-01T11:02:05.187Z,22.3
2017-05-01T11:04:05.696Z,22.3
2017-05-01T11:06:05.470Z,22.3
2017-05-01T11:08:08.040Z,22.3
2017-05-01T11:10:04.878Z,22.3
2017-05-01T11:12:05.626Z,22.3
2017-05-01T11:14:05.620Z,22.3
2017-05-01T11:16:09.919Z,22.3
2017-05-01T11:18:04.886Z,22.3
2017-05-01T11:20:05.955Z,22.3
2017-05-01T11:22:04.681Z,22.3
2017-05-01T11:24:05.363Z,22.3
2017-05-01T11:26:09.661Z,22.3
2017-05-01T11:28:15.495Z,22.3
2017-05-01T11:30:05.186Z,22.3
2017-05-01T11:32:05.215Z,22.4
2017-05-01T11:34:05.090Z,22.4
2017-05-01T11:36:05.193Z,22.3
2017-05-01T11:38:05.456Z,22.4
2017-05-01T11:40:05.188Z,22.4
2017-05-01T11:42:07.397Z,22.4
2017-05-01T11:44:04.847Z,22.4
2017-05-01T11:46:05.630Z,22.4
2017-05-01T11:48:07.920Z,22.4
2017-05-01T11:50:12.505Z,22.3
2017-05-01T11:52:05.394Z,22.3
2017-05-01T11:54:05.069Z,22.3
2017-05-01T11:56:04.926Z,22.3
2017-05-01T11:58:04.612Z,22.3
2017-05-01T12:00:04.982Z,22.3
2017-05-01T12:02:04.979Z,22.3
2017-05-01T12:04:04.659Z,22.3
2017-05-01T12:06:05.306Z,22.3
2017-05-01T12:08:05.362Z,22.3
2017-05-01T12:10:05.141Z,22.3
2017-05-01T12:12:07.395Z,22.3
2017-05-01T12:14:10.114Z,22.3
2017-05-01T12:16:07.884Z,22.3
2017-05-01T12:18:04.807Z,22.3
2017-05-01T12:20:05.713Z,22.3
2017-05-01T12:22:05.443Z,22.3
2017-05-01T12:25:23.285Z,22.3
2017-05-01T12:26:07.844Z,22.3
2017-05-01T12:28:05.357Z,22.3
2017-05-01T12:30:05.029Z,22.4
2017-05-01T12:32:05.105Z,22.4
2017-05-01T12:34:07.874Z,22.3
2017-05-01T12:36:05.078Z,22.3
2017-05-01T12:38:07.480Z,22.4
2017-05-01T12:40:05.218Z,22.4
2017-05-01T12:42:10.321Z,22.4
2017-05-01T12:44:07.882Z,22.4
2017-05-01T12:46:05.590Z,22.3
2017-05-01T12:48:05.450Z,22.4
2017-05-01T12:50:05.255Z,22.4
2017-05-01T12:52:10.102Z,22.3
2017-05-01T12:54:04.789Z,22.3
2017-05-01T12:56:05.801Z,22.4
2017-05-01T12:58:05.339Z,22.3
2017-05-01T13:00:05.083Z,22.4
2017-05-01T13:02:05.475Z,22.4
2017-05-01T13:04:05.310Z,22.3
2017-05-01T13:06:07.532Z,22.2
2017-05-01T13:08:05.530Z,22.3
2017-05-01T13:10:05.311Z,22.2
2017-05-01T13:12:05.032Z,22.2
2017-05-01T13:14:04.873Z,22.2
2017-05-01T13:16:05.222Z,22.2
2017-05-01T13:18:04.813Z,22.2
2017-05-01T13:20:08.387Z,22.1
2017-05-01T13:22:07.598Z,22.1
2017-05-01T13:24:05.302Z,22.1
2017-05-01T13:26:05.367Z,22.1
2017-05-01T13:28:07.595Z,22.1
2017-05-01T13:30:05.704Z,22.1
2017-05-01T13:32:13.291Z,22
2017-05-01T13:34:07.526Z,22
2017-05-01T13:36:07.780Z,22
2017-05-01T13:38:05.646Z,22
2017-05-01T13:40:05.332Z,22
2017-05-01T13:42:05.176Z,22
2017-05-01T13:44:05.262Z,22
2017-05-01T13:46:05.744Z,22
2017-05-01T13:48:05.444Z,22
2017-05-01T13:50:12.953Z,22
2017-05-01T13:52:04.782Z,22
2017-05-01T13:54:05.583Z,22
2017-05-01T13:56:05.673Z,22
2017-05-01T13:58:05.530Z,22
2017-05-01T14:00:05.226Z,22.1
2017-05-01T14:02:05.299Z,22
2017-05-01T14:04:05.516Z,22.1
2017-05-01T14:06:10.307Z,22.1
2017-05-01T14:08:05.119Z,22.1
2017-05-01T14:10:04.853Z,22.1
2017-05-01T14:12:10.676Z,22.1
2017-05-01T14:14:05.700Z,22.1
2017-05-01T14:16:04.919Z,22.1
2017-05-01T14:18:12.752Z,22.1
2017-05-01T14:20:10.905Z,22.1
2017-05-01T14:22:05.769Z,22.1
2017-05-01T14:24:13.113Z,22.1
2017-05-01T14:26:07.890Z,22.1
2017-05-01T14:28:05.634Z,22.1
2017-05-01T14:30:05.412Z,22.1
2017-05-01T14:32:10.591Z,22.1
2017-05-01T14:34:04.973Z,22.1
2017-05-01T14:36:04.648Z,22.1
2017-05-01T14:38:05.703Z,22.1
2017-05-01T14:40:05.424Z,22.1
2017-05-01T14:42:04.710Z,22.1
2017-05-01T14:44:05.366Z,22.1
2017-05-01T14:46:05.616Z,22.1
2017-05-01T14:48:05.382Z,22.1
2017-05-01T14:50:05.340Z,22.1
2017-05-01T14:52:05.595Z,22.1
2017-05-01T14:54:07.922Z,22.1
2017-05-01T14:56:04.994Z,22.1
2017-05-01T14:58:04.976Z,22.1
2017-05-01T15:00:04.879Z,22.1
2017-05-01T15:02:10.211Z,22.1
2017-05-01T15:04:07.615Z,22.1
2017-05-01T15:06:05.895Z,22.1
2017-05-01T15:08:04.883Z,22.1
2017-05-01T15:10:10.395Z,22.1
2017-05-01T15:12:14.952Z,22.1
2017-05-01T15:14:12.642Z,22.1
2017-05-01T15:16:05.509Z,22.1
2017-05-01T15:18:05.468Z,22.1
2017-05-01T15:20:05.381Z,22.1
2017-05-01T15:22:07.990Z,22.1
2017-05-01T15:24:04.720Z,22.1
2017-05-01T15:26:05.361Z,22.1
2017-05-01T15:28:12.213Z,22.1
2017-05-01T15:30:05.521Z,22.1
2017-05-01T15:32:05.081Z,22.1
2017-05-01T15:34:04.798Z,22.2
2017-05-01T15:36:05.543Z,22.1
2017-05-01T15:38:05.558Z,22.1
2017-05-01T15:40:05.259Z,22.1
2017-05-01T15:42:07.477Z,22.1
2017-05-01T15:44:10.595Z,22.1
2017-05-01T15:46:07.406Z,22.2
2017-05-01T15:48:05.169Z,22.2
2017-05-01T15:50:05.343Z,22.1
2017-05-01T15:52:05.063Z,22.1
2017-05-01T15:54:05.043Z,22.1
2017-05-01T15:56:04.999Z,22.1
2017-05-01T15:58:04.737Z,22.2
2017-05-01T16:00:05.507Z,22.2
2017-05-01T16:02:05.606Z,22.2
2017-05-01T16:04:07.955Z,22.2
2017-05-01T16:06:09.772Z,22.1
2017-05-01T16:08:10.893Z,22.2
2017-05-01T16:10:05.909Z,22.2
2017-05-01T16:12:07.316Z,22.2
2017-05-01T16:14:05.140Z,22.1
2017-05-01T16:16:04.810Z,22.2
2017-05-01T16:18:07.421Z,22.2
2017-05-01T16:20:05.212Z,22.2
2017-05-01T16:22:05.028Z,22.2
2017-05-01T16:24:05.291Z,22.2
2017-05-01T16:26:05.325Z,22.2
2017-05-01T16:28:05.121Z,22.2
2017-05-01T16:30:04.860Z,22.2
2017-05-01T16:32:08.198Z,22.2
2017-05-01T16:34:05.380Z,22.1
2017-05-01T16:36:05.219Z,22.2
2017-05-01T16:38:05.060Z,22.2
2017-05-01T16:40:07.898Z,22.2
2017-05-01T16:42:06.010Z,22.2
2017-05-01T16:44:04.949Z,22.2
2017-05-01T16:46:05.293Z,22.2
2017-05-01T16:48:05.547Z,22.2
2017-05-01T16:50:10.268Z,22.2
2017-05-01T16:52:05.273Z,22.2
2017-05-01T16:54:05.289Z,22.2
2017-05-01T16:56:08.019Z,22.2
2017-05-01T16:58:05.546Z,22.2
2017-05-01T17:00:07.810Z,22.2
2017-05-01T17:02:05.614Z,22.2
2017-05-01T17:04:07.810Z,22.2
2017-05-01T17:06:05.591Z,22.2
2017-05-01T17:08:05.468Z,22.2
2017-05-01T17:10:05.156Z,22.2
2017-05-01T17:12:04.853Z,22.2
2017-05-01T17:14:05.717Z,22.2
2017-05-01T17:16:07.604Z,22.2
2017-05-01T17:18:08.038Z,22.2
2017-05-01T17:20:04.910Z,22.2
2017-05-01T17:22:05.363Z,22.2
2017-05-01T17:24:07.826Z,22.2
2017-05-01T17:26:05.806Z,22.2
2017-05-01T17:28:08.122Z,22.2
2017-05-01T17:30:04.987Z,22.2
2017-05-01T17:32:05.080Z,22.2
2017-05-01T17:34:07.305Z,22.2
2017-05-01T17:36:04.994Z,22.2
2017-05-01T17:38:05.027Z,22.2
2017-05-01T17:40:04.716Z,22.3
2017-05-01T17:42:07.962Z,22.2
2017-05-01T17:44:07.955Z,22.3
2017-05-01T17:46:04.845Z,22.3
2017-05-01T17:48:04.981Z,22.3
2017-05-01T17:50:05.006Z,22.3
2017-05-01T17:52:04.801Z,22.3
2017-05-01T17:54:05.565Z,22.2
2017-05-01T17:56:05.027Z,22.2
2017-05-01T17:58:04.745Z,22.2
2017-05-01T18:00:04.952Z,22.2
2017-05-01T18:02:05.015Z,22.2
2017-05-01T18:04:12.363Z,22.1
2017-05-01T18:06:05.269Z,22.1
2017-05-01T18:08:05.283Z,22.1
2017-05-01T18:10:05.030Z,22.1
2017-05-01T18:12:04.725Z,22.1
2017-05-01T18:14:05.631Z,22
2017-05-01T18:16:07.375Z,22.1
2017-05-01T18:18:05.797Z,22
2017-05-01T18:20:05.835Z,22.1
2017-05-01T18:22:10.550Z,22.1
2017-05-01T18:24:04.754Z,22.1
2017-05-01T18:26:05.571Z,22.1
2017-05-01T18:28:07.836Z,22
2017-05-01T18:30:05.616Z,22
2017-05-01T18:32:08.198Z,22
2017-05-01T18:34:10.066Z,22
2017-05-01T18:36:04.828Z,22
2017-05-01T18:38:05.943Z,22
2017-05-01T18:40:10.301Z,22
2017-05-01T18:42:05.199Z,22
2017-05-01T18:44:07.522Z,22
2017-05-01T18:46:05.185Z,22
2017-05-01T18:48:05.148Z,22
2017-05-01T18:50:10.164Z,22
2017-05-01T18:52:04.865Z,22
2017-05-01T18:54:05.547Z,22
2017-05-01T18:56:05.461Z,22
2017-05-01T18:58:05.178Z,22
2017-05-01T19:00:07.386Z,22
2017-05-01T19:02:07.488Z,22
2017-05-01T19:04:07.844Z,22
2017-05-01T19:06:07.499Z,22
2017-05-01T19:08:05.544Z,22
2017-05-01T19:10:05.451Z,22
2017-05-01T19:12:04.706Z,22
2017-05-01T19:14:10.715Z,22
2017-05-01T19:16:05.396Z,22
2017-05-01T19:18:05.390Z,22
2017-05-01T19:20:05.389Z,22
2017-05-01T19:22:05.239Z,22
2017-05-01T19:24:05.467Z,22
2017-05-01T19:26:05.514Z,22
2017-05-01T19:28:04.787Z,22
2017-05-01T19:30:05.502Z,22
2017-05-01T19:32:05.353Z,22
2017-05-01T19:34:10.226Z,22
2017-05-01T19:36:05.137Z,21.9
2017-05-01T19:38:05.206Z,22
2017-05-01T19:40:04.913Z,22
2017-05-01T19:42:04.768Z,22
2017-05-01T19:44:05.672Z,22
2017-05-01T19:46:04.992Z,22
2017-05-01T19:48:04.821Z,22
2017-05-01T19:50:05.905Z,22
2017-05-01T19:52:12.409Z,21.9
2017-05-01T19:54:05.656Z,21.9
2017-05-01T19:56:05.193Z,22
2017-05-01T19:58:07.452Z,22
2017-05-01T20:00:07.638Z,22
2017-05-01T20:02:05.471Z,21.9
2017-05-01T20:04:05.405Z,21.9
2017-05-01T20:06:05.240Z,21.9
2017-05-01T20:08:07.824Z,21.9
2017-05-01T20:10:05.383Z,21.9
2017-05-01T20:12:05.078Z,21.9
2017-05-01T20:14:04.901Z,21.9
2017-05-01T20:16:05.590Z,21.9
2017-05-01T20:18:05.591Z,21.9
2017-05-01T20:20:06.073Z,21.9
2017-05-01T20:22:04.844Z,21.9
2017-05-01T20:24:05.569Z,22
2017-05-01T20:26:05.792Z,21.9
2017-05-01T20:28:07.115Z,21.9
2017-05-01T20:30:04.826Z,21.9
2017-05-01T20:32:10.438Z,21.9
2017-05-01T20:34:05.154Z,21.9
2017-05-01T20:36:13.463Z,21.9
2017-05-01T20:38:05.642Z,21.9
2017-05-01T20:40:05.396Z,21.9
2017-05-01T20:42:07.904Z,21.9
2017-05-01T20:44:04.928Z,21.9
2017-05-01T20:46:04.835Z,21.9
2017-05-01T20:48:05.568Z,21.9
2017-05-01T20:50:05.592Z,21.9
2017-05-01T20:52:07.881Z,21.9
2017-05-01T20:54:04.635Z,21.9
2017-05-01T20:56:05.543Z,21.9
2017-05-01T20:58:04.956Z,21.9
2017-05-01T21:00:04.676Z,21.9
2017-05-01T21:02:05.536Z,21.9
2017-05-01T21:04:07.764Z,21.9
2017-05-01T21:06:05.435Z,21.9
2017-05-01T21:08:05.446Z,21.9
2017-05-01T21:10:05.328Z,21.9
2017-05-01T21:12:10.251Z,21.9
2017-05-01T21:14:05.338Z,21.9
2017-05-01T21:16:07.585Z,21.9
2017-05-01T21:18:05.608Z,21.9
2017-05-01T21:20:15.802Z,21.9
2017-05-01T21:22:07.224Z,21.9
2017-05-01T21:24:07.564Z,21.9
2017-05-01T21:26:05.661Z,21.9
2017-05-01T21:28:05.629Z,21.9
2017-05-01T21:30:05.321Z,21.9
2017-05-01T21:32:05.791Z,21.9
2017-05-01T21:34:08.163Z,21.9
2017-05-01T21:36:05.146Z,21.9
2017-05-01T21:38:07.673Z,22
2017-05-01T21:40:06.329Z,21.9
2017-05-01T21:42:05.069Z,21.9
2017-05-01T21:44:05.074Z,21.9
2017-05-01T21:46:04.906Z,21.9
2017-05-01T21:48:07.182Z,21.9
2017-05-01T21:50:07.584Z,21.9
2017-05-01T21:52:05.367Z,21.9
2017-05-01T21:54:04.810Z,21.9
2017-05-01T21:56:05.644Z,21.9
2017-05-01T21:58:05.338Z,21.9
2017-05-01T22:00:05.056Z,21.9
2017-05-01T22:02:05.677Z,21.9
2017-05-01T22:04:05.164Z,21.9
2017-05-01T22:06:04.874Z,21.9
2017-05-01T22:08:06.287Z,21.9
2017-05-01T22:10:04.986Z,21.9
2017-05-01T22:12:04.758Z,21.9
2017-05-01T22:14:07.866Z,21.9
2017-05-01T22:16:08.109Z,21.9
2017-05-01T22:18:05.390Z,21.9
2017-05-01T22:20:07.899Z,21.9
2017-05-01T22:22:04.689Z,21.9
2017-05-01T22:24:05.428Z,21.9
2017-05-01T22:26:04.889Z,21.9
2017-05-01T22:28:05.678Z,21.9
2017-05-01T22:30:05.419Z,21.9
2017-05-01T22:32:05.511Z,21.9
2017-05-01T22:34:09.966Z,21.9
2017-05-01T22:36:12.297Z,21.9
2017-05-01T22:38:07.745Z,21.9
2017-05-01T22:40:05.462Z,21.9
2017-05-01T22:42:05.216Z,21.9
2017-05-01T22:44:05.270Z,21.9
2017-05-01T22:46:04.950Z,21.9
2017-05-01T22:48:07.189Z,21.9
2017-05-01T22:50:05.310Z,21.8
2017-05-01T22:52:04.956Z,21.9
2017-05-01T22:54:04.850Z,21.9
2017-05-01T22:56:05.902Z,21.9
2017-05-01T22:58:05.557Z,21.9
2017-05-01T23:00:05.316Z,21.9
2017-05-01T23:02:05.369Z,21.9
2017-05-01T23:04:05.101Z,21.9
2017-05-01T23:06:05.461Z,21.9
2017-05-01T23:08:05.517Z,21.9
2017-05-01T23:10:05.198Z,21.9
2017-05-01T23:12:07.432Z,21.9
2017-05-01T23:14:05.290Z,21.9
2017-05-01T23:16:04.977Z,21.9
2017-05-01T23:18:04.889Z,21.8
2017-05-01T23:20:08.465Z,21.9
2017-05-01T23:22:05.412Z,21.9
2017-05-01T23:24:05.105Z,21.9
2017-05-01T23:26:07.505Z,21.9
2017-05-01T23:28:05.250Z,21.9
2017-05-01T23:30:05.004Z,21.9
2017-05-01T23:32:05.179Z,21.9
2017-05-01T23:34:04.950Z,21.8
2017-05-01T23:36:05.174Z,21.9
2017-05-01T23:38:07.774Z,21.9
2017-05-01T23:40:05.511Z,21.9
2017-05-01T23:42:05.198Z,21.9
2017-05-01T23:44:05.226Z,21.9
2017-05-01T23:46:05.549Z,21.9
2017-05-01T23:48:07.750Z,21.9
2017-05-01T23:50:08.313Z,21.8
2017-05-01T23:52:05.001Z,21.9
2017-05-01T23:54:04.882Z,21.9
2017-05-01T23:56:05.948Z,21.9
2017-05-01T23:58:04.835Z,21.9
